Relevés horaires Bierset (Belgique)


Relevés horaires à Bierset - Dimanche 31 Mai 2020
Heure UTC1 Température [°C] Vent [km/h] Hum. [%] Pres.4 [hPa] Visi. [Km] Nébu. [octa] Préc.5 [mm] Cond.
2m. Res. Ros. Dir.2 Vit. Moy. Raf.3
23:00 14.9 14.9 5.7 ENE 5.6 7.4 13.0 54 1022(0.8/3h) 30 4/8 -- --
22:00 15.3 15.3 5.8 NE 7.4 9.3 16.7 53 1021.7(1.1/3h) 30 4/8 -- --
21:00 16.3 16.3 5.5 NE 7.4 13.0 22.2 49 1021.4(1.0/3h) 30 4/8 -- --
20:00 17.0 17.0 5.6 NE 7.4 11.1 22.2 47 1021(0.9/3h) 30 4/8 -- --
19:00 18.3 18.3 5.0 NE 11.1 13.0 16.7 41 1020.4(-0.1/3h) 30 4/8 -- --
18:00 19.5 19.5 4.6 NE 13.0 13.0 20.4 37 1020.2(-0.3/3h) 30 4/8 0/12h
--
17:00 20.7 20.7 4.3 NE 13.0 13.0 18.5 34 1019.8(-0.9/3h) 30 3/8 -- --
16:00 21.4 21.4 2.8 NE 11.1 13.0 20.4 29 1020.1(-0.9/3h) 30 2/8 -- --
15:00 21.1 21.1 2.4 ENE 9.3 13.0 20.4 29 1020.4(-0.9/3h) 30 2/8 -- --
14:00 20.8 20.8 2.4 NE 9.3 11.1 20.4 30 1020.8(-0.9/3h) 30 2/8 -- --
13:00 20.5 20.5 2.4 NE 9.3 13.0 20.4 30 1021(-0.9/3h) 30 2/8 -- --
12:00 19.0 19.0 -0.1 ENE 9.3 14.8 25.9 28 1021.5(-0.7/3h) 30 3/8 0/6h
--
11:00 18.9 18.9 1.5 NE 13.0 13.0 20.4 31 1021.8(-0.3/3h) 30 3/8 -- --
10:00 18.4 18.4 4.0 NE 9.3 13.0 25.9 38 1022.1(0.1/3h) 30 3/8 -- --
09:00 18.1 18.1 3.7 NE 11.1 13.0 18.5 38 1022.2(0.2/3h) 30 3/8 -- --
08:00 16.8 16.8 4.8 ENE 9.3 11.1 16.7 45 1022.3(0.2/3h) 30 2/8 -- --
07:00 15.6 15.6 4.5 NE 7.4 7.4 11.1 48 1022.2(0.1/3h) 30 1/8 -- --
06:00 14.1 14.1 4.6 NE 3.7 5.6 9.3 53 1022.3(0.3/3h) 30 1/8 0/12h
--
05:00 13.3 13.3 4.1 ENE 3.7 3.7 5.6 54 1022.4(0.1/3h) 30 0/8 -- --
04:00 12.0 12.0 3.7 ENE 3.7 5.6 7.4 57 1022.4(0.1/3h) 30 0/8 -- --
03:00 11.5 11.5 3.6 NE 3.7 5.6 9.3 58 1022.2(-0.2/3h) 30 0/8 -- --
02:00 11.3 11.3 3.3 NE 3.7 3.7 9.3 58 1022.4(0.0/3h) 30 0/8 -- --
01:00 13.6 13.6 3.0 ENE 1.9 3.7 9.3 49 1022.2(0.1/3h) 30 0/8 -- --
00:00 15.3 15.3 2.9 E 5.6 13.0 22.2 43 1022.1(0.4/3h) 30 0/8 0/6h
0/24h
--

1 Coordinated Universal Time. Actuellement il est 07:00 locale et 05:00 UTC.

2 Le vent souffle depuis la direction indiquée vers la direction oposée.

3 Les rafales max. sont disponible 40 min après l'heure du relevé.

4 Pour les stations d'altitude (plus de 600m) le géopotentiel du niveau le plus proche de la pression obligatoire est indiqué.

5 Les stations disposant d'un diffuseur peuvent indiquer "trace". Cela signifie que des précipitations ont touchés le sol mais que la quantité est inférieure à 0.1 mm.

Récapitulatif de la journée
Température [°C] Vent [km/h] Ensoleillement4 [h] Precipitations totale5 [mm] Pression [Hpa]
Min1 Max.2 Moy.3 Max. Min Max.
10.8 22.0 10.1 25.9 0 h 0 min 0 1019.8 1022.4

1 Température minimale relevée entre 18:00 UTC la veille et 18:00 UTC le jour donné.

2 Température maximale relevée entre 06:00 UTC le jour donné et 06:00 UTC le lendemain.

3 Vent moyen de la journée basé sur les relevés horaires.

4 Ensoleillement en heures relevé entre 06:00 UTC la veille et 06:00 UTC le jour donné.

5 Précipitations totales tombées entre 06:00 UTC la jour donné et 06:00 UTC le lendemain.

Graphiques horaires